Oakville, Michigan
Current Conditions -  °F | °C
As of 8:53 PM on Monday 24 Nov 2014 (Local Time) from KARB Reporting Station
Overcast Overcast  
Wind Chill: 23°   Ceiling: 2000
Heat Index: 35°   Visibility: 10mi
Dew Point: 27°   Wind: 24mph
Humidity: 72%   Direction: 230°SW
Pressure: 29.63"   Gusts: 32mph
Location:  42.0828°N, 83.683°W
Report Text: KARB 250153Z AUTO 23021G28KT 10SM OVC020 02/M03 A2963 RMK AO2 PK WND 23035/0114 SLP036 T00171028
Loading
Personal Weather Stations






























Interactive Weather Map New forecast layout! Learn more

10-Day Weather Forecast

Advertisements
Track Severe Weather on mobile